createdAt,value
2023-05-01T00:02:21.780Z,10.00
2023-05-01T00:07:25.499Z,9.90
2023-05-01T00:12:29.068Z,9.90
2023-05-01T00:17:32.004Z,9.80
2023-05-01T00:22:34.925Z,9.70
2023-05-01T00:27:37.845Z,9.70
2023-05-01T00:32:41.670Z,9.60
2023-05-01T00:37:45.119Z,9.60
2023-05-01T00:42:48.084Z,9.50
2023-05-01T00:47:51.204Z,9.50
2023-05-01T00:52:54.244Z,9.40
2023-05-01T00:57:57.526Z,9.40
2023-05-01T01:03:01.039Z,9.40
2023-05-01T01:08:31.325Z,9.30
2023-05-01T01:13:58.303Z,9.30
2023-05-01T01:19:37.546Z,9.30
2023-05-01T01:25:30.130Z,9.30
2023-05-01T01:31:17.644Z,9.20
2023-05-01T01:36:43.441Z,9.10
2023-05-01T01:41:52.904Z,9.10
2023-05-01T01:46:56.688Z,9.10
2023-05-01T01:52:02.617Z,9.10
2023-05-01T01:57:08.960Z,9.10
2023-05-01T02:02:14.094Z,9.10
2023-05-01T02:07:19.021Z,9.10
2023-05-01T02:12:26.895Z,9.10
2023-05-01T02:17:30.902Z,9.10
2023-05-01T02:22:34.423Z,9.20
2023-05-01T02:27:47.563Z,9.10
2023-05-01T02:32:50.906Z,9.10
2023-05-01T02:37:54.206Z,9.10
2023-05-01T02:42:58.794Z,9.10
2023-05-01T02:48:05.975Z,9.10
2023-05-01T02:53:09.727Z,9.10
2023-05-01T02:58:20.409Z,9.10
2023-05-01T03:03:23.439Z,9.00
2023-05-01T03:08:26.632Z,8.90
2023-05-01T03:13:29.906Z,8.80
2023-05-01T03:18:33.338Z,8.60
2023-05-01T03:23:38.425Z,8.60
2023-05-01T03:28:41.408Z,8.50
2023-05-01T03:33:44.272Z,8.50
2023-05-01T03:38:47.514Z,8.50
2023-05-01T03:43:50.817Z,8.40
2023-05-01T03:48:54.474Z,8.30
2023-05-01T03:53:58.897Z,8.20
2023-05-01T03:59:02.445Z,8.20
2023-05-01T04:04:05.855Z,8.20
2023-05-01T04:09:08.783Z,8.30
2023-05-01T04:14:11.738Z,8.40
2023-05-01T04:19:16.061Z,8.50
2023-05-01T04:24:19.046Z,8.60
2023-05-01T04:29:22.028Z,8.70
2023-05-01T04:34:25.885Z,8.80
2023-05-01T04:39:28.877Z,8.90
2023-05-01T04:44:34.275Z,9.00
2023-05-01T04:49:37.179Z,9.10
2023-05-01T04:54:40.144Z,9.30
2023-05-01T04:59:43.341Z,9.50
2023-05-01T05:04:46.272Z,9.70
2023-05-01T05:09:49.262Z,9.90
2023-05-01T05:14:52.190Z,10.20
2023-05-01T05:19:55.605Z,10.40
2023-05-01T05:25:04.182Z,10.60
2023-05-01T05:30:08.529Z,10.90
2023-05-01T05:35:11.638Z,11.10
2023-05-01T05:40:14.843Z,11.30
2023-05-01T05:45:17.868Z,11.50
2023-05-01T05:50:20.908Z,11.80
2023-05-01T05:55:23.863Z,12.10
2023-05-01T06:00:27.322Z,12.30
2023-05-01T06:05:30.507Z,12.40
2023-05-01T06:10:33.462Z,12.60
2023-05-01T06:15:38.372Z,12.70
2023-05-01T06:20:42.819Z,12.90
2023-05-01T06:25:47.087Z,13.00
2023-05-01T06:30:50.162Z,13.20
2023-05-01T06:35:54.634Z,13.30
2023-05-01T06:40:58.019Z,13.60
2023-05-01T06:46:01.449Z,13.80
2023-05-01T06:51:04.592Z,14.10
2023-05-01T06:56:08.826Z,14.30
2023-05-01T07:01:11.925Z,14.40
2023-05-01T07:06:15.230Z,14.60
2023-05-01T07:11:18.267Z,14.80
2023-05-01T07:16:21.783Z,14.90
2023-05-01T07:21:25.054Z,15.00
2023-05-01T07:26:28.165Z,15.10
2023-05-01T07:31:31.356Z,15.20
2023-05-01T07:36:34.449Z,15.50
2023-05-01T07:41:37.413Z,15.80
2023-05-01T07:46:40.758Z,15.90
2023-05-01T07:51:44.844Z,16.00
2023-05-01T07:56:49.677Z,16.20
2023-05-01T08:01:52.818Z,16.20
2023-05-01T08:06:55.880Z,16.30
2023-05-01T08:11:58.975Z,16.40
2023-05-01T08:17:01.902Z,16.60
2023-05-01T08:22:05.398Z,16.80
2023-05-01T08:27:09.482Z,16.90
2023-05-01T08:32:12.600Z,17.00
2023-05-01T08:37:15.770Z,17.20
2023-05-01T08:42:19.451Z,17.40
2023-05-01T08:47:22.944Z,17.80
2023-05-01T08:52:27.342Z,18.20
2023-05-01T08:57:31.955Z,18.40
2023-05-01T09:02:36.011Z,18.60
2023-05-01T09:07:40.954Z,18.70
2023-05-01T09:12:47.826Z,18.90
2023-05-01T09:17:51.311Z,19.10
2023-05-01T09:22:56.937Z,19.20
2023-05-01T09:28:00.082Z,19.30
2023-05-01T09:33:14.000Z,19.50
2023-05-01T09:38:27.891Z,19.70
2023-05-01T09:43:31.820Z,19.80
2023-05-01T09:48:36.269Z,19.90
2023-05-01T09:53:40.907Z,20.00
2023-05-01T09:58:44.563Z,20.10
2023-05-01T10:03:55.041Z,20.30
2023-05-01T10:08:58.207Z,20.50
2023-05-01T10:14:11.348Z,20.60
2023-05-01T10:19:17.502Z,20.70
2023-05-01T10:24:21.583Z,20.70
2023-05-01T10:29:27.988Z,20.60
2023-05-01T10:34:34.128Z,20.50
2023-05-01T10:39:37.453Z,20.30
2023-05-01T10:44:42.475Z,20.60
2023-05-01T10:50:11.398Z,21.00
2023-05-01T10:55:37.396Z,21.50
2023-05-01T11:00:41.413Z,21.60
2023-05-01T11:06:16.850Z,21.60
2023-05-01T11:11:22.971Z,21.70
2023-05-01T11:16:38.517Z,21.80
2023-05-01T11:21:42.198Z,21.80
2023-05-01T11:26:45.252Z,21.80
2023-05-01T11:31:49.010Z,22.10
2023-05-01T11:36:53.597Z,22.40
2023-05-01T11:42:09.962Z,22.70
2023-05-01T11:47:13.762Z,23.00
2023-05-01T11:52:17.516Z,23.40
2023-05-01T11:57:20.472Z,23.00
2023-05-01T12:02:23.758Z,22.90
2023-05-01T12:07:26.773Z,23.00
2023-05-01T12:12:30.312Z,23.30
2023-05-01T12:17:33.470Z,24.00
2023-05-01T12:22:50.454Z,24.60
2023-05-01T12:27:53.887Z,25.50
2023-05-01T12:32:58.614Z,26.40
2023-05-01T12:38:18.180Z,27.30
2023-05-01T12:43:29.807Z,27.70
2023-05-01T12:48:35.850Z,28.30
2023-05-01T12:53:44.714Z,28.80
2023-05-01T12:58:48.063Z,28.70
2023-05-01T13:03:51.332Z,28.50
2023-05-01T13:08:54.219Z,28.40
2023-05-01T13:14:11.713Z,27.90
2023-05-01T13:19:24.726Z,27.10
2023-05-01T13:24:41.858Z,26.40
2023-05-01T13:29:58.655Z,26.10
2023-05-01T13:35:02.986Z,25.80
2023-05-01T13:40:06.988Z,25.60
2023-05-01T13:45:11.428Z,26.00
2023-05-01T13:50:16.194Z,26.30
2023-05-01T13:55:21.851Z,26.90
2023-05-01T14:00:26.093Z,27.50
2023-05-01T14:05:29.117Z,28.20
2023-05-01T14:10:32.435Z,28.50
2023-05-01T14:15:36.041Z,28.50
2023-05-01T14:20:41.032Z,28.40
2023-05-01T14:25:46.644Z,28.60
2023-05-01T14:30:51.412Z,28.60
2023-05-01T14:35:55.419Z,28.70
2023-05-01T14:40:58.501Z,28.40
2023-05-01T14:46:01.483Z,28.30
2023-05-01T14:51:10.508Z,27.90
2023-05-01T14:56:13.582Z,27.70
2023-05-01T15:01:18.299Z,27.60
2023-05-01T15:06:21.828Z,27.30
2023-05-01T15:11:24.824Z,26.90
2023-05-01T15:16:28.032Z,26.70
2023-05-01T15:21:32.073Z,26.40
2023-05-01T15:26:35.012Z,26.10
2023-05-01T15:31:38.151Z,26.20
2023-05-01T15:36:41.767Z,25.90
2023-05-01T15:41:45.097Z,25.70
2023-05-01T15:46:56.155Z,25.50
2023-05-01T15:51:59.499Z,25.30
2023-05-01T15:57:03.279Z,25.10
2023-05-01T16:02:08.878Z,25.00
2023-05-01T16:07:13.364Z,24.70
2023-05-01T16:12:16.428Z,24.30
2023-05-01T16:17:19.777Z,23.80
2023-05-01T16:22:22.888Z,23.30
2023-05-01T16:27:25.881Z,22.90
2023-05-01T16:32:29.500Z,22.60
2023-05-01T16:37:34.189Z,22.30
2023-05-01T16:42:38.495Z,21.90
2023-05-01T16:47:41.534Z,21.60
2023-05-01T16:52:44.712Z,21.40
2023-05-01T16:57:48.144Z,21.20
2023-05-01T17:02:52.421Z,20.90
2023-05-01T17:07:55.404Z,20.70
2023-05-01T17:13:02.330Z,20.50
2023-05-01T17:18:05.907Z,20.30
2023-05-01T17:23:09.881Z,20.10
2023-05-01T17:28:12.907Z,19.90
2023-05-01T17:33:16.223Z,19.70
2023-05-01T17:38:19.393Z,19.50
2023-05-01T17:43:22.543Z,19.40
2023-05-01T17:48:25.718Z,19.20
2023-05-01T17:53:28.655Z,19.10
2023-05-01T17:58:31.973Z,18.80
2023-05-01T18:03:35.266Z,18.60
2023-05-01T18:08:38.390Z,18.40
2023-05-01T18:13:43.848Z,18.10
2023-05-01T18:18:49.621Z,17.80
2023-05-01T18:23:52.630Z,17.50
2023-05-01T18:28:55.871Z,17.30
2023-05-01T18:33:59.528Z,17.00
2023-05-01T18:39:02.424Z,16.80
2023-05-01T18:44:06.191Z,16.60
2023-05-01T18:49:11.018Z,16.50
2023-05-01T18:54:14.122Z,16.30
2023-05-01T18:59:19.513Z,16.20
2023-05-01T19:04:22.762Z,16.10
2023-05-01T19:09:25.909Z,15.90
2023-05-01T19:14:28.887Z,15.80
2023-05-01T19:19:31.872Z,15.60
2023-05-01T19:24:35.039Z,15.50
2023-05-01T19:29:39.820Z,15.40
2023-05-01T19:34:42.668Z,15.30
2023-05-01T19:39:45.999Z,15.00
2023-05-01T19:44:49.429Z,14.90
2023-05-01T19:49:52.388Z,14.70
2023-05-01T19:54:55.309Z,14.50
2023-05-01T20:00:01.200Z,14.40
2023-05-01T20:05:05.829Z,14.20
2023-05-01T20:10:09.781Z,14.00
2023-05-01T20:15:12.854Z,13.90
2023-05-01T20:20:20.034Z,13.80
2023-05-01T20:25:24.300Z,13.70
2023-05-01T20:30:27.199Z,13.60
2023-05-01T20:35:33.788Z,13.50
2023-05-01T20:40:40.893Z,13.40
2023-05-01T20:45:43.899Z,13.30
2023-05-01T20:50:48.349Z,13.30
2023-05-01T20:55:51.374Z,13.20
2023-05-01T21:00:55.894Z,13.10
2023-05-01T21:06:02.283Z,13.00
2023-05-01T21:11:06.001Z,12.90
2023-05-01T21:16:16.990Z,12.80
2023-05-01T21:21:19.712Z,12.60
2023-05-01T21:26:22.710Z,12.50
2023-05-01T21:31:34.487Z,12.50
2023-05-01T21:36:45.248Z,12.40
2023-05-01T21:41:49.533Z,12.40
2023-05-01T21:46:55.317Z,12.40
2023-05-01T21:52:00.023Z,12.30
2023-05-01T21:57:05.760Z,12.30
2023-05-01T22:02:11.428Z,12.10
2023-05-01T22:07:14.450Z,12.10
2023-05-01T22:12:17.383Z,12.00
2023-05-01T22:17:24.380Z,11.90
2023-05-01T22:22:27.534Z,11.80
2023-05-01T22:27:31.252Z,11.70
2023-05-01T22:32:34.403Z,11.70
2023-05-01T22:37:37.885Z,11.60
2023-05-01T22:42:40.977Z,11.50
2023-05-01T22:47:44.037Z,11.50
2023-05-01T22:52:47.010Z,11.40
2023-05-01T22:57:49.972Z,11.30
2023-05-01T23:02:52.958Z,11.30
2023-05-01T23:07:56.011Z,11.20
2023-05-01T23:13:00.209Z,11.10
2023-05-01T23:18:03.817Z,11.10
2023-05-01T23:23:14.357Z,11.10
2023-05-01T23:28:23.437Z,11.00
2023-05-01T23:33:34.462Z,11.00
2023-05-01T23:38:37.255Z,10.90
2023-05-01T23:43:40.384Z,10.80
2023-05-01T23:48:43.515Z,10.80
2023-05-01T23:53:46.644Z,10.70
2023-05-01T23:58:49.688Z,10.70
